sensor_id;sensor_type;location;lat;lon;timestamp;temperature;humidity
16384;DHT22;8301;51.440;6.610;2023-02-18T00:01:02;11.00;99.90
16384;DHT22;8301;51.440;6.610;2023-02-18T00:03:29;11.00;99.90
16384;DHT22;8301;51.440;6.610;2023-02-18T00:05:56;10.90;99.90
16384;DHT22;8301;51.440;6.610;2023-02-18T00:08:23;11.00;99.90
16384;DHT22;8301;51.440;6.610;2023-02-18T00:10:50;11.00;99.90
16384;DHT22;8301;51.440;6.610;2023-02-18T00:13:18;11.00;99.90
16384;DHT22;8301;51.440;6.610;2023-02-18T00:15:44;11.00;99.90
16384;DHT22;8301;51.440;6.610;2023-02-18T00:18:11;11.00;99.90
16384;DHT22;8301;51.440;6.610;2023-02-18T00:20:38;10.90;99.90
16384;DHT22;8301;51.440;6.610;2023-02-18T00:23:05;10.90;99.90
16384;DHT22;8301;51.440;6.610;2023-02-18T00:25:32;11.00;99.90
16384;DHT22;8301;51.440;6.610;2023-02-18T00:27:59;11.00;99.90
16384;DHT22;8301;51.440;6.610;2023-02-18T00:30:26;11.00;99.90
16384;DHT22;8301;51.440;6.610;2023-02-18T00:32:53;11.00;99.90
16384;DHT22;8301;51.440;6.610;2023-02-18T00:35:20;11.00;99.90
16384;DHT22;8301;51.440;6.610;2023-02-18T00:37:49;11.00;99.90
16384;DHT22;8301;51.440;6.610;2023-02-18T00:40:15;11.00;99.90
16384;DHT22;8301;51.440;6.610;2023-02-18T00:42:42;11.00;99.90
16384;DHT22;8301;51.440;6.610;2023-02-18T00:45:09;10.90;99.90
16384;DHT22;8301;51.440;6.610;2023-02-18T00:47:35;10.90;99.90
16384;DHT22;8301;51.440;6.610;2023-02-18T00:50:02;10.90;99.90
16384;DHT22;8301;51.440;6.610;2023-02-18T00:52:29;10.90;99.90
16384;DHT22;8301;51.440;6.610;2023-02-18T00:54:56;11.00;99.90
16384;DHT22;8301;51.440;6.610;2023-02-18T00:57:23;11.00;99.90
16384;DHT22;8301;51.440;6.610;2023-02-18T00:59:49;10.90;99.90
16384;DHT22;8301;51.440;6.610;2023-02-18T01:02:16;11.00;99.90
16384;DHT22;8301;51.440;6.610;2023-02-18T01:04:43;10.90;99.90
16384;DHT22;8301;51.440;6.610;2023-02-18T01:07:10;10.90;99.90
16384;DHT22;8301;51.440;6.610;2023-02-18T01:09:37;10.90;99.90
16384;DHT22;8301;51.440;6.610;2023-02-18T01:12:04;10.90;99.90
16384;DHT22;8301;51.440;6.610;2023-02-18T01:14:31;11.00;99.90
16384;DHT22;8301;51.440;6.610;2023-02-18T01:16:58;10.90;99.90
16384;DHT22;8301;51.440;6.610;2023-02-18T01:19:24;11.00;99.90
16384;DHT22;8301;51.440;6.610;2023-02-18T01:21:52;10.90;99.90
16384;DHT22;8301;51.440;6.610;2023-02-18T01:24:18;10.90;99.90
16384;DHT22;8301;51.440;6.610;2023-02-18T01:26:45;10.90;99.90
16384;DHT22;8301;51.440;6.610;2023-02-18T01:29:12;10.90;99.90
16384;DHT22;8301;51.440;6.610;2023-02-18T01:31:39;10.90;99.90
16384;DHT22;8301;51.440;6.610;2023-02-18T01:34:05;10.90;99.90
16384;DHT22;8301;51.440;6.610;2023-02-18T01:36:32;10.90;99.90
16384;DHT22;8301;51.440;6.610;2023-02-18T01:38:59;10.80;99.90
16384;DHT22;8301;51.440;6.610;2023-02-18T01:41:27;10.80;99.90
16384;DHT22;8301;51.440;6.610;2023-02-18T01:46:39;10.80;99.90
16384;DHT22;8301;51.440;6.610;2023-02-18T01:49:06;10.80;99.90
16384;DHT22;8301;51.440;6.610;2023-02-18T01:51:42;10.80;99.90
16384;DHT22;8301;51.440;6.610;2023-02-18T01:54:22;10.80;99.90
16384;DHT22;8301;51.440;6.610;2023-02-18T01:56:53;10.80;99.90
16384;DHT22;8301;51.440;6.610;2023-02-18T01:59:25;10.80;99.90
16384;DHT22;8301;51.440;6.610;2023-02-18T02:01:53;10.80;99.90
16384;DHT22;8301;51.440;6.610;2023-02-18T02:04:21;10.80;99.90
16384;DHT22;8301;51.440;6.610;2023-02-18T02:06:48;10.70;99.90
16384;DHT22;8301;51.440;6.610;2023-02-18T02:09:18;10.70;99.90
16384;DHT22;8301;51.440;6.610;2023-02-18T02:17:10;10.70;99.90
16384;DHT22;8301;51.440;6.610;2023-02-18T02:22:24;10.70;99.90
16384;DHT22;8301;51.440;6.610;2023-02-18T02:24:49;10.70;99.90
16384;DHT22;8301;51.440;6.610;2023-02-18T02:35:20;10.70;99.90
16384;DHT22;8301;51.440;6.610;2023-02-18T02:40:22;10.60;99.90
16384;DHT22;8301;51.440;6.610;2023-02-18T02:50:52;10.60;99.90
16384;DHT22;8301;51.440;6.610;2023-02-18T02:53:26;10.50;99.90
16384;DHT22;8301;51.440;6.610;2023-02-18T02:55:54;10.50;99.90
16384;DHT22;8301;51.440;6.610;2023-02-18T02:58:21;10.60;99.90
16384;DHT22;8301;51.440;6.610;2023-02-18T03:03:25;10.50;99.90
16384;DHT22;8301;51.440;6.610;2023-02-18T03:06:01;10.50;99.90
16384;DHT22;8301;51.440;6.610;2023-02-18T03:11:09;10.40;99.90
16384;DHT22;8301;51.440;6.610;2023-02-18T03:19:18;10.40;99.90
16384;DHT22;8301;51.440;6.610;2023-02-18T03:21:46;10.40;99.90
16384;DHT22;8301;51.440;6.610;2023-02-18T03:24:17;10.40;99.90
16384;DHT22;8301;51.440;6.610;2023-02-18T03:26:42;10.40;99.90
16384;DHT22;8301;51.440;6.610;2023-02-18T03:29:09;10.40;99.90
16384;DHT22;8301;51.440;6.610;2023-02-18T03:31:37;10.40;99.90
16384;DHT22;8301;51.440;6.610;2023-02-18T03:34:16;10.40;99.90
16384;DHT22;8301;51.440;6.610;2023-02-18T03:36:43;10.50;99.90
16384;DHT22;8301;51.440;6.610;2023-02-18T03:39:17;10.40;99.90
16384;DHT22;8301;51.440;6.610;2023-02-18T03:41:44;10.40;99.90
16384;DHT22;8301;51.440;6.610;2023-02-18T03:44:11;10.40;99.90
16384;DHT22;8301;51.440;6.610;2023-02-18T03:46:39;10.40;99.90
16384;DHT22;8301;51.440;6.610;2023-02-18T03:49:10;10.40;99.90
16384;DHT22;8301;51.440;6.610;2023-02-18T03:51:37;10.40;99.90
16384;DHT22;8301;51.440;6.610;2023-02-18T03:54:04;10.40;99.90
16384;DHT22;8301;51.440;6.610;2023-02-18T03:56:36;10.40;99.90
16384;DHT22;8301;51.440;6.610;2023-02-18T03:59:03;10.40;99.90
16384;DHT22;8301;51.440;6.610;2023-02-18T04:01:30;10.40;99.90
16384;DHT22;8301;51.440;6.610;2023-02-18T04:03:57;10.40;99.90
16384;DHT22;8301;51.440;6.610;2023-02-18T04:06:27;10.40;99.90
16384;DHT22;8301;51.440;6.610;2023-02-18T04:08:54;10.40;99.90
16384;DHT22;8301;51.440;6.610;2023-02-18T04:11:21;10.40;99.90
16384;DHT22;8301;51.440;6.610;2023-02-18T04:13:48;10.40;99.90
16384;DHT22;8301;51.440;6.610;2023-02-18T04:16:15;10.40;99.90
16384;DHT22;8301;51.440;6.610;2023-02-18T04:18:43;10.40;99.90
16384;DHT22;8301;51.440;6.610;2023-02-18T04:21:10;10.40;99.90
16384;DHT22;8301;51.440;6.610;2023-02-18T04:23:36;10.40;99.90
16384;DHT22;8301;51.440;6.610;2023-02-18T04:26:04;10.40;99.90
16384;DHT22;8301;51.440;6.610;2023-02-18T04:28:31;10.40;99.90
16384;DHT22;8301;51.440;6.610;2023-02-18T04:31:00;10.30;99.90
16384;DHT22;8301;51.440;6.610;2023-02-18T04:33:26;10.30;99.90
16384;DHT22;8301;51.440;6.610;2023-02-18T04:35:53;10.30;99.90
16384;DHT22;8301;51.440;6.610;2023-02-18T04:38:20;10.20;99.90
16384;DHT22;8301;51.440;6.610;2023-02-18T04:40:47;10.20;99.90
16384;DHT22;8301;51.440;6.610;2023-02-18T04:43:14;10.20;99.90
16384;DHT22;8301;51.440;6.610;2023-02-18T04:45:40;10.20;99.90
16384;DHT22;8301;51.440;6.610;2023-02-18T04:48:07;10.10;99.90
16384;DHT22;8301;51.440;6.610;2023-02-18T04:50:34;10.10;99.90
16384;DHT22;8301;51.440;6.610;2023-02-18T04:53:01;10.00;99.90
16384;DHT22;8301;51.440;6.610;2023-02-18T04:55:28;10.00;99.90
16384;DHT22;8301;51.440;6.610;2023-02-18T04:57:55;10.00;99.90
16384;DHT22;8301;51.440;6.610;2023-02-18T05:00:21;10.00;99.90
16384;DHT22;8301;51.440;6.610;2023-02-18T05:02:49;10.00;99.90
16384;DHT22;8301;51.440;6.610;2023-02-18T05:05:16;10.00;99.90
16384;DHT22;8301;51.440;6.610;2023-02-18T05:07:43;10.00;99.90
16384;DHT22;8301;51.440;6.610;2023-02-18T05:10:13;10.00;99.90
16384;DHT22;8301;51.440;6.610;2023-02-18T05:12:45;10.00;99.90
16384;DHT22;8301;51.440;6.610;2023-02-18T05:15:12;10.00;99.90
16384;DHT22;8301;51.440;6.610;2023-02-18T05:17:38;9.90;99.90
16384;DHT22;8301;51.440;6.610;2023-02-18T05:20:07;10.00;99.90
16384;DHT22;8301;51.440;6.610;2023-02-18T05:22:44;10.00;99.90
16384;DHT22;8301;51.440;6.610;2023-02-18T05:25:11;10.00;99.90
16384;DHT22;8301;51.440;6.610;2023-02-18T05:27:37;10.00;99.90
16384;DHT22;8301;51.440;6.610;2023-02-18T05:30:05;10.00;99.90
16384;DHT22;8301;51.440;6.610;2023-02-18T05:32:31;10.00;99.90
16384;DHT22;8301;51.440;6.610;2023-02-18T05:34:58;10.00;99.90
16384;DHT22;8301;51.440;6.610;2023-02-18T05:37:25;10.00;99.90
16384;DHT22;8301;51.440;6.610;2023-02-18T05:39:52;10.00;99.90
16384;DHT22;8301;51.440;6.610;2023-02-18T05:42:19;10.00;99.90
16384;DHT22;8301;51.440;6.610;2023-02-18T05:44:45;10.00;99.90
16384;DHT22;8301;51.440;6.610;2023-02-18T05:47:12;9.90;99.90
16384;DHT22;8301;51.440;6.610;2023-02-18T05:49:40;9.90;99.90
16384;DHT22;8301;51.440;6.610;2023-02-18T05:52:07;10.00;99.90
16384;DHT22;8301;51.440;6.610;2023-02-18T05:54:34;10.00;99.90
16384;DHT22;8301;51.440;6.610;2023-02-18T05:57:01;10.00;99.90
16384;DHT22;8301;51.440;6.610;2023-02-18T05:59:28;10.00;99.90
16384;DHT22;8301;51.440;6.610;2023-02-18T06:01:55;10.00;99.90
16384;DHT22;8301;51.440;6.610;2023-02-18T06:04:22;10.00;99.90
16384;DHT22;8301;51.440;6.610;2023-02-18T06:06:49;10.00;99.90
16384;DHT22;8301;51.440;6.610;2023-02-18T06:09:18;10.00;99.90
16384;DHT22;8301;51.440;6.610;2023-02-18T06:11:47;10.00;99.90
16384;DHT22;8301;51.440;6.610;2023-02-18T06:14:14;10.00;99.90
16384;DHT22;8301;51.440;6.610;2023-02-18T06:16:40;10.00;99.90
16384;DHT22;8301;51.440;6.610;2023-02-18T06:19:07;10.00;99.90
16384;DHT22;8301;51.440;6.610;2023-02-18T06:21:34;10.00;99.90
16384;DHT22;8301;51.440;6.610;2023-02-18T06:24:04;10.00;99.90
16384;DHT22;8301;51.440;6.610;2023-02-18T06:26:31;10.00;99.90
16384;DHT22;8301;51.440;6.610;2023-02-18T06:28:58;10.00;99.90
16384;DHT22;8301;51.440;6.610;2023-02-18T06:31:25;10.00;99.90
16384;DHT22;8301;51.440;6.610;2023-02-18T06:33:53;10.00;99.90
16384;DHT22;8301;51.440;6.610;2023-02-18T06:36:21;10.00;99.90
16384;DHT22;8301;51.440;6.610;2023-02-18T06:38:48;10.00;99.90
16384;DHT22;8301;51.440;6.610;2023-02-18T06:41:15;9.90;99.90
16384;DHT22;8301;51.440;6.610;2023-02-18T06:43:42;9.90;99.90
16384;DHT22;8301;51.440;6.610;2023-02-18T06:46:08;9.90;99.90
16384;DHT22;8301;51.440;6.610;2023-02-18T06:48:35;9.90;99.90
16384;DHT22;8301;51.440;6.610;2023-02-18T06:51:05;9.90;99.90
16384;DHT22;8301;51.440;6.610;2023-02-18T06:53:32;9.90;99.90
16384;DHT22;8301;51.440;6.610;2023-02-18T06:55:59;9.90;99.90
16384;DHT22;8301;51.440;6.610;2023-02-18T06:58:26;9.90;99.90
16384;DHT22;8301;51.440;6.610;2023-02-18T07:00:53;9.90;99.90
16384;DHT22;8301;51.440;6.610;2023-02-18T07:03:19;9.90;99.90
16384;DHT22;8301;51.440;6.610;2023-02-18T07:05:46;9.90;99.90
16384;DHT22;8301;51.440;6.610;2023-02-18T07:08:13;9.90;99.90
16384;DHT22;8301;51.440;6.610;2023-02-18T07:10:41;9.80;99.90
16384;DHT22;8301;51.440;6.610;2023-02-18T07:13:08;9.80;99.90
16384;DHT22;8301;51.440;6.610;2023-02-18T07:15:34;9.80;99.90
16384;DHT22;8301;51.440;6.610;2023-02-18T07:18:01;9.80;99.90
16384;DHT22;8301;51.440;6.610;2023-02-18T07:20:28;9.80;99.90
16384;DHT22;8301;51.440;6.610;2023-02-18T07:22:55;9.80;99.90
16384;DHT22;8301;51.440;6.610;2023-02-18T07:25:25;9.80;99.90
16384;DHT22;8301;51.440;6.610;2023-02-18T07:27:52;9.90;99.90
16384;DHT22;8301;51.440;6.610;2023-02-18T07:30:20;9.90;99.90
16384;DHT22;8301;51.440;6.610;2023-02-18T07:32:47;10.00;99.90
16384;DHT22;8301;51.440;6.610;2023-02-18T07:35:15;10.00;99.90
16384;DHT22;8301;51.440;6.610;2023-02-18T07:37:50;10.00;99.90
16384;DHT22;8301;51.440;6.610;2023-02-18T07:40:15;10.10;99.90
16384;DHT22;8301;51.440;6.610;2023-02-18T07:42:42;10.10;99.90
16384;DHT22;8301;51.440;6.610;2023-02-18T07:45:09;10.10;99.90
16384;DHT22;8301;51.440;6.610;2023-02-18T07:47:48;10.10;99.90
16384;DHT22;8301;51.440;6.610;2023-02-18T07:50:16;10.20;99.90
16384;DHT22;8301;51.440;6.610;2023-02-18T07:52:43;10.10;99.90
16384;DHT22;8301;51.440;6.610;2023-02-18T07:55:10;10.10;99.90
16384;DHT22;8301;51.440;6.610;2023-02-18T07:57:43;10.00;99.90
16384;DHT22;8301;51.440;6.610;2023-02-18T08:00:31;10.00;99.90
16384;DHT22;8301;51.440;6.610;2023-02-18T08:02:58;9.90;99.90
16384;DHT22;8301;51.440;6.610;2023-02-18T08:05:34;9.80;99.90
16384;DHT22;8301;51.440;6.610;2023-02-18T08:08:04;9.80;99.90
16384;DHT22;8301;51.440;6.610;2023-02-18T08:10:30;9.80;99.90
16384;DHT22;8301;51.440;6.610;2023-02-18T08:12:59;9.90;99.90
16384;DHT22;8301;51.440;6.610;2023-02-18T08:15:32;9.80;99.90
16384;DHT22;8301;51.440;6.610;2023-02-18T08:17:59;9.80;99.90
16384;DHT22;8301;51.440;6.610;2023-02-18T08:20:26;9.80;99.90
16384;DHT22;8301;51.440;6.610;2023-02-18T08:22:54;9.80;99.90
16384;DHT22;8301;51.440;6.610;2023-02-18T08:25:21;9.80;99.90
16384;DHT22;8301;51.440;6.610;2023-02-18T08:27:47;9.80;99.90
16384;DHT22;8301;51.440;6.610;2023-02-18T08:30:14;9.70;99.90
16384;DHT22;8301;51.440;6.610;2023-02-18T08:32:41;9.70;99.90
16384;DHT22;8301;51.440;6.610;2023-02-18T08:35:09;9.60;99.90
16384;DHT22;8301;51.440;6.610;2023-02-18T08:37:36;9.60;99.90
16384;DHT22;8301;51.440;6.610;2023-02-18T08:40:03;9.60;99.90
16384;DHT22;8301;51.440;6.610;2023-02-18T08:42:30;9.60;99.90
16384;DHT22;8301;51.440;6.610;2023-02-18T08:44:57;9.60;99.90
16384;DHT22;8301;51.440;6.610;2023-02-18T08:47:23;9.60;99.90
16384;DHT22;8301;51.440;6.610;2023-02-18T08:49:52;9.60;99.90
16384;DHT22;8301;51.440;6.610;2023-02-18T08:52:18;9.60;99.90
16384;DHT22;8301;51.440;6.610;2023-02-18T08:54:45;9.60;99.90
16384;DHT22;8301;51.440;6.610;2023-02-18T08:57:12;9.60;99.90
16384;DHT22;8301;51.440;6.610;2023-02-18T08:59:39;9.60;99.90
16384;DHT22;8301;51.440;6.610;2023-02-18T09:02:06;9.60;99.90
16384;DHT22;8301;51.440;6.610;2023-02-18T09:04:33;9.60;99.90
16384;DHT22;8301;51.440;6.610;2023-02-18T09:06:59;9.60;99.90
16384;DHT22;8301;51.440;6.610;2023-02-18T09:09:26;9.60;99.90
16384;DHT22;8301;51.440;6.610;2023-02-18T09:11:53;9.60;99.90
16384;DHT22;8301;51.440;6.610;2023-02-18T09:14:20;9.70;99.90
16384;DHT22;8301;51.440;6.610;2023-02-18T09:16:47;9.70;99.90
16384;DHT22;8301;51.440;6.610;2023-02-18T09:19:16;9.70;99.90
16384;DHT22;8301;51.440;6.610;2023-02-18T09:21:43;9.60;99.90
16384;DHT22;8301;51.440;6.610;2023-02-18T09:24:09;9.70;99.90
16384;DHT22;8301;51.440;6.610;2023-02-18T09:26:37;9.80;99.90
16384;DHT22;8301;51.440;6.610;2023-02-18T09:29:05;9.70;99.90
16384;DHT22;8301;51.440;6.610;2023-02-18T09:31:38;9.70;99.90
16384;DHT22;8301;51.440;6.610;2023-02-18T09:34:06;9.70;99.90
16384;DHT22;8301;51.440;6.610;2023-02-18T09:36:33;9.70;99.90
16384;DHT22;8301;51.440;6.610;2023-02-18T09:39:01;9.80;99.90
16384;DHT22;8301;51.440;6.610;2023-02-18T09:41:29;9.80;99.90
16384;DHT22;8301;51.440;6.610;2023-02-18T09:43:58;9.90;99.90
16384;DHT22;8301;51.440;6.610;2023-02-18T09:46:29;10.00;99.90
16384;DHT22;8301;51.440;6.610;2023-02-18T09:48:56;10.00;99.90
16384;DHT22;8301;51.440;6.610;2023-02-18T09:51:23;10.00;99.90
16384;DHT22;8301;51.440;6.610;2023-02-18T09:53:50;10.00;99.90
16384;DHT22;8301;51.440;6.610;2023-02-18T09:56:30;10.10;99.90
16384;DHT22;8301;51.440;6.610;2023-02-18T09:59:00;10.10;99.90
16384;DHT22;8301;51.440;6.610;2023-02-18T10:01:29;10.10;99.90
16384;DHT22;8301;51.440;6.610;2023-02-18T10:04:02;10.10;99.90
16384;DHT22;8301;51.440;6.610;2023-02-18T10:06:33;10.00;99.90
16384;DHT22;8301;51.440;6.610;2023-02-18T10:09:05;10.00;99.90
16384;DHT22;8301;51.440;6.610;2023-02-18T10:11:34;10.00;99.90
16384;DHT22;8301;51.440;6.610;2023-02-18T10:14:00;10.10;99.90
16384;DHT22;8301;51.440;6.610;2023-02-18T10:16:30;10.10;99.90
16384;DHT22;8301;51.440;6.610;2023-02-18T10:18:57;10.00;99.90
16384;DHT22;8301;51.440;6.610;2023-02-18T10:21:27;9.90;99.90
16384;DHT22;8301;51.440;6.610;2023-02-18T10:24:42;9.80;99.90
16384;DHT22;8301;51.440;6.610;2023-02-18T10:27:08;9.70;99.90
16384;DHT22;8301;51.440;6.610;2023-02-18T10:29:35;9.70;99.90
16384;DHT22;8301;51.440;6.610;2023-02-18T10:34:42;9.70;99.90
16384;DHT22;8301;51.440;6.610;2023-02-18T10:45:08;9.60;99.90
16384;DHT22;8301;51.440;6.610;2023-02-18T10:50:28;9.50;99.90
16384;DHT22;8301;51.440;6.610;2023-02-18T10:53:07;9.40;99.90
16384;DHT22;8301;51.440;6.610;2023-02-18T10:55:41;9.30;99.90
16384;DHT22;8301;51.440;6.610;2023-02-18T11:00:42;9.30;99.90
16384;DHT22;8301;51.440;6.610;2023-02-18T11:03:12;9.30;99.90
16384;DHT22;8301;51.440;6.610;2023-02-18T11:05:38;9.30;99.90
16384;DHT22;8301;51.440;6.610;2023-02-18T11:08:07;9.20;99.90
16384;DHT22;8301;51.440;6.610;2023-02-18T11:10:35;9.20;99.90
16384;DHT22;8301;51.440;6.610;2023-02-18T11:13:09;9.20;99.90
16384;DHT22;8301;51.440;6.610;2023-02-18T11:15:32;9.20;99.90
16384;DHT22;8301;51.440;6.610;2023-02-18T11:18:25;9.20;99.90
16384;DHT22;8301;51.440;6.610;2023-02-18T11:20:42;9.20;99.90
16384;DHT22;8301;51.440;6.610;2023-02-18T11:23:23;9.20;99.90
16384;DHT22;8301;51.440;6.610;2023-02-18T11:25:55;9.20;99.90
16384;DHT22;8301;51.440;6.610;2023-02-18T11:28:34;9.20;99.90
16384;DHT22;8301;51.440;6.610;2023-02-18T11:30:58;9.30;99.90
16384;DHT22;8301;51.440;6.610;2023-02-18T11:35:56;9.30;99.90
16384;DHT22;8301;51.440;6.610;2023-02-18T11:38:36;9.30;99.90
16384;DHT22;8301;51.440;6.610;2023-02-18T11:41:11;9.30;99.90
16384;DHT22;8301;51.440;6.610;2023-02-18T11:43:42;9.30;99.90
16384;DHT22;8301;51.440;6.610;2023-02-18T11:46:20;9.20;99.90
16384;DHT22;8301;51.440;6.610;2023-02-18T11:48:43;9.30;99.90
16384;DHT22;8301;51.440;6.610;2023-02-18T11:51:22;9.30;99.90
16384;DHT22;8301;51.440;6.610;2023-02-18T11:56:34;9.30;99.90
16384;DHT22;8301;51.440;6.610;2023-02-18T11:59:02;9.30;99.90
16384;DHT22;8301;51.440;6.610;2023-02-18T12:01:35;9.30;99.90
16384;DHT22;8301;51.440;6.610;2023-02-18T12:11:42;9.40;99.90
16384;DHT22;8301;51.440;6.610;2023-02-18T12:14:17;9.50;99.90
16384;DHT22;8301;51.440;6.610;2023-02-18T12:27:22;9.50;99.90
16384;DHT22;8301;51.440;6.610;2023-02-18T12:32:38;9.50;99.90
16384;DHT22;8301;51.440;6.610;2023-02-18T12:37:48;9.50;99.90
16384;DHT22;8301;51.440;6.610;2023-02-18T12:46:05;9.60;99.90
16384;DHT22;8301;51.440;6.610;2023-02-18T12:48:32;9.60;99.90
16384;DHT22;8301;51.440;6.610;2023-02-18T12:59:11;9.60;99.90
16384;DHT22;8301;51.440;6.610;2023-02-18T13:04:22;9.50;99.90
16384;DHT22;8301;51.440;6.610;2023-02-18T13:12:23;9.60;99.90
16384;DHT22;8301;51.440;6.610;2023-02-18T13:14:55;9.60;99.90
16384;DHT22;8301;51.440;6.610;2023-02-18T13:17:19;9.60;99.90
16384;DHT22;8301;51.440;6.610;2023-02-18T13:19:49;9.60;99.90
16384;DHT22;8301;51.440;6.610;2023-02-18T13:22:26;9.60;99.90
16384;DHT22;8301;51.440;6.610;2023-02-18T13:25:02;9.60;99.90
16384;DHT22;8301;51.440;6.610;2023-02-18T13:27:40;9.60;99.90
16384;DHT22;8301;51.440;6.610;2023-02-18T13:30:13;9.60;99.90
16384;DHT22;8301;51.440;6.610;2023-02-18T13:32:56;9.70;99.90
16384;DHT22;8301;51.440;6.610;2023-02-18T13:35:24;9.70;99.90
16384;DHT22;8301;51.440;6.610;2023-02-18T13:40:25;9.80;99.90
16384;DHT22;8301;51.440;6.610;2023-02-18T13:42:53;9.80;99.90
16384;DHT22;8301;51.440;6.610;2023-02-18T13:45:25;9.80;99.90
16384;DHT22;8301;51.440;6.610;2023-02-18T13:47:52;9.90;99.90
16384;DHT22;8301;51.440;6.610;2023-02-18T13:50:27;9.90;99.90
16384;DHT22;8301;51.440;6.610;2023-02-18T13:55:41;10.00;99.90
16384;DHT22;8301;51.440;6.610;2023-02-18T13:58:27;9.90;99.90
16384;DHT22;8301;51.440;6.610;2023-02-18T14:01:05;10.00;99.90
16384;DHT22;8301;51.440;6.610;2023-02-18T14:03:33;10.00;99.90
16384;DHT22;8301;51.440;6.610;2023-02-18T14:06:11;10.00;99.90
16384;DHT22;8301;51.440;6.610;2023-02-18T14:08:33;10.00;99.90
16384;DHT22;8301;51.440;6.610;2023-02-18T14:11:45;10.00;99.90
16384;DHT22;8301;51.440;6.610;2023-02-18T14:13:40;10.00;99.90
16384;DHT22;8301;51.440;6.610;2023-02-18T14:16:08;10.00;99.90
16384;DHT22;8301;51.440;6.610;2023-02-18T14:23:42;10.20;99.90
16384;DHT22;8301;51.440;6.610;2023-02-18T14:28:52;10.20;99.90
16384;DHT22;8301;51.440;6.610;2023-02-18T14:51:48;10.20;99.90
16384;DHT22;8301;51.440;6.610;2023-02-18T14:54:25;10.20;99.90
16384;DHT22;8301;51.440;6.610;2023-02-18T14:56:56;10.20;99.90
16384;DHT22;8301;51.440;6.610;2023-02-18T14:59:25;10.20;99.90
16384;DHT22;8301;51.440;6.610;2023-02-18T15:01:53;10.20;99.90
16384;DHT22;8301;51.440;6.610;2023-02-18T15:04:23;10.20;99.90
16384;DHT22;8301;51.440;6.610;2023-02-18T15:07:04;10.20;99.90
16384;DHT22;8301;51.440;6.610;2023-02-18T15:12:19;10.10;99.90
16384;DHT22;8301;51.440;6.610;2023-02-18T15:14:48;10.10;99.90
16384;DHT22;8301;51.440;6.610;2023-02-18T15:17:19;10.20;99.90
16384;DHT22;8301;51.440;6.610;2023-02-18T15:19:52;10.20;99.90
16384;DHT22;8301;51.440;6.610;2023-02-18T15:22:29;10.20;99.90
16384;DHT22;8301;51.440;6.610;2023-02-18T15:27:32;10.20;99.90
16384;DHT22;8301;51.440;6.610;2023-02-18T15:30:10;10.20;99.90
16384;DHT22;8301;51.440;6.610;2023-02-18T15:32:31;10.20;99.90
16384;DHT22;8301;51.440;6.610;2023-02-18T15:35:13;10.20;99.90
16384;DHT22;8301;51.440;6.610;2023-02-18T15:37:32;10.20;99.90
16384;DHT22;8301;51.440;6.610;2023-02-18T15:39:59;10.20;99.90
16384;DHT22;8301;51.440;6.610;2023-02-18T15:42:32;10.20;99.90
16384;DHT22;8301;51.440;6.610;2023-02-18T15:47:42;10.20;99.90
16384;DHT22;8301;51.440;6.610;2023-02-18T15:50:14;10.20;99.90
16384;DHT22;8301;51.440;6.610;2023-02-18T15:55:14;10.20;99.90
16384;DHT22;8301;51.440;6.610;2023-02-18T15:57:39;10.30;99.90
16384;DHT22;8301;51.440;6.610;2023-02-18T16:00:18;10.30;99.90
16384;DHT22;8301;51.440;6.610;2023-02-18T16:02:55;10.30;99.90
16384;DHT22;8301;51.440;6.610;2023-02-18T16:05:23;10.30;99.90
16384;DHT22;8301;51.440;6.610;2023-02-18T16:07:51;10.30;99.90
16384;DHT22;8301;51.440;6.610;2023-02-18T16:10:20;10.20;99.90
16384;DHT22;8301;51.440;6.610;2023-02-18T16:12:54;10.20;99.90
16384;DHT22;8301;51.440;6.610;2023-02-18T16:15:24;10.20;99.90
16384;DHT22;8301;51.440;6.610;2023-02-18T16:17:52;10.20;99.90
16384;DHT22;8301;51.440;6.610;2023-02-18T16:22:58;10.30;99.90
16384;DHT22;8301;51.440;6.610;2023-02-18T16:28:26;10.20;99.90
16384;DHT22;8301;51.440;6.610;2023-02-18T16:30:53;10.20;99.90
16384;DHT22;8301;51.440;6.610;2023-02-18T16:33:26;10.20;99.90
16384;DHT22;8301;51.440;6.610;2023-02-18T16:35:53;10.20;99.90
16384;DHT22;8301;51.440;6.610;2023-02-18T16:38:23;10.20;99.90
16384;DHT22;8301;51.440;6.610;2023-02-18T16:40:50;10.30;99.90
16384;DHT22;8301;51.440;6.610;2023-02-18T16:43:25;10.20;99.90
16384;DHT22;8301;51.440;6.610;2023-02-18T16:45:57;10.30;99.90
16384;DHT22;8301;51.440;6.610;2023-02-18T16:48:31;10.30;99.90
16384;DHT22;8301;51.440;6.610;2023-02-18T16:51:00;10.30;99.90
16384;DHT22;8301;51.440;6.610;2023-02-18T16:53:32;10.20;99.90
16384;DHT22;8301;51.440;6.610;2023-02-18T16:55:59;10.20;99.90
16384;DHT22;8301;51.440;6.610;2023-02-18T16:58:26;10.20;99.90
16384;DHT22;8301;51.440;6.610;2023-02-18T17:00:54;10.20;99.90
16384;DHT22;8301;51.440;6.610;2023-02-18T17:03:21;10.10;99.90
16384;DHT22;8301;51.440;6.610;2023-02-18T17:05:48;10.10;99.90
16384;DHT22;8301;51.440;6.610;2023-02-18T17:08:16;10.10;99.90
16384;DHT22;8301;51.440;6.610;2023-02-18T17:10:47;10.10;99.90
16384;DHT22;8301;51.440;6.610;2023-02-18T17:13:15;10.10;99.90
16384;DHT22;8301;51.440;6.610;2023-02-18T17:15:42;10.10;99.90
16384;DHT22;8301;51.440;6.610;2023-02-18T17:18:09;10.00;99.90
16384;DHT22;8301;51.440;6.610;2023-02-18T17:20:36;10.00;99.90
16384;DHT22;8301;51.440;6.610;2023-02-18T17:23:03;10.00;99.90
16384;DHT22;8301;51.440;6.610;2023-02-18T17:25:44;10.00;99.90
16384;DHT22;8301;51.440;6.610;2023-02-18T17:28:11;10.00;99.90
16384;DHT22;8301;51.440;6.610;2023-02-18T17:30:40;10.00;99.90
16384;DHT22;8301;51.440;6.610;2023-02-18T17:33:16;10.00;99.90
16384;DHT22;8301;51.440;6.610;2023-02-18T17:35:43;10.00;99.90
16384;DHT22;8301;51.440;6.610;2023-02-18T17:38:11;10.10;99.90
16384;DHT22;8301;51.440;6.610;2023-02-18T17:40:38;10.10;99.90
16384;DHT22;8301;51.440;6.610;2023-02-18T17:43:12;10.10;99.90
16384;DHT22;8301;51.440;6.610;2023-02-18T17:45:45;10.20;99.90
16384;DHT22;8301;51.440;6.610;2023-02-18T17:48:12;10.20;99.90
16384;DHT22;8301;51.440;6.610;2023-02-18T17:50:39;10.20;99.90
16384;DHT22;8301;51.440;6.610;2023-02-18T17:53:05;10.20;99.90
16384;DHT22;8301;51.440;6.610;2023-02-18T17:55:33;10.20;99.90
16384;DHT22;8301;51.440;6.610;2023-02-18T17:58:00;10.20;99.90
16384;DHT22;8301;51.440;6.610;2023-02-18T18:00:42;10.20;99.90
16384;DHT22;8301;51.440;6.610;2023-02-18T18:03:09;10.20;99.90
16384;DHT22;8301;51.440;6.610;2023-02-18T18:05:37;10.20;99.90
16384;DHT22;8301;51.440;6.610;2023-02-18T18:08:05;10.20;99.90
16384;DHT22;8301;51.440;6.610;2023-02-18T18:10:33;10.20;99.90
16384;DHT22;8301;51.440;6.610;2023-02-18T18:13:03;10.20;99.90
16384;DHT22;8301;51.440;6.610;2023-02-18T18:15:31;10.20;99.90
16384;DHT22;8301;51.440;6.610;2023-02-18T18:18:00;10.20;99.90
16384;DHT22;8301;51.440;6.610;2023-02-18T18:20:33;10.20;99.90
16384;DHT22;8301;51.440;6.610;2023-02-18T18:23:01;10.20;99.90
16384;DHT22;8301;51.440;6.610;2023-02-18T18:28:02;10.20;99.90
16384;DHT22;8301;51.440;6.610;2023-02-18T18:30:30;10.20;99.90
16384;DHT22;8301;51.440;6.610;2023-02-18T18:32:57;10.20;99.90
16384;DHT22;8301;51.440;6.610;2023-02-18T18:35:26;10.20;99.90
16384;DHT22;8301;51.440;6.610;2023-02-18T18:37:56;10.20;99.90
16384;DHT22;8301;51.440;6.610;2023-02-18T18:40:24;10.20;99.90